23:52
Airports
Links
Donate
Help keep this website running!
PayPal
Bitcoin
METAR
KBVY 192253Z 21010KT 10SM CLR 19/07 A2997 RMK AO2 SLP144 T01890067
Current Weather Conditions at KBVY
VFR 22:53:00 19-10-17
Automated station
Altimeter:29.97 hg
Temp:18.9°c 64°f
Dew point:6.7°c 43°f
Wind:10 knots, 11.5 mph, 5 m/s, from 210°
Visibility:10.0 statute miles
(CLR) Clear
Past METAR reports
VFR 21:53:00 19-10-17
Automated station
Altimeter:29.98 hg
Temp:20.0°c 68°f
Dew point:6.7°c 43°f
Wind:9 knots, 10.4 mph, 5 m/s, from 210°
Visibility:10.0 statute miles
(CLR) Clear
KBVY 192153Z 21009KT 10SM CLR 20/07 A2998 RMK AO2 SLP149 T02000067
VFR 20:53:00 19-10-17
Automated station
Altimeter:29.99 hg
Temp:22.2°c 72°f
Dew point:6.7°c 43°f
Wind:12 knots, 13.8 mph, 6 m/s, from 210°
Visibility:10.0 statute miles
(CLR) Clear
KBVY 192053Z 21012KT 10SM CLR 22/07 A2999 RMK AO2 SLP151 T02220067 56027
VFR 19:53:00 19-10-17
Automated station
Altimeter:30.01 hg
Temp:23.3°c 73°f
Dew point:7.2°c 45°f
Wind:14 knots, 16.1 mph, 7 m/s, from 210°
Visibility:10.0 statute miles
(CLR) Clear
KBVY 191953Z 21014G20KT 10SM CLR 23/07 A3001 RMK AO2 SLP159 T02330072
VFR 18:53:00 19-10-17
Automated station
Altimeter:30.04 hg
Temp:23.3°c 73°f
Dew point:7.8°c 45°f
Wind:12 knots, 13.8 mph, 6 m/s, from 230°
Visibility:10.0 statute miles
(CLR) Clear
KBVY 191853Z 23012G21KT 10SM CLR 23/08 A3004 RMK AO2 SLP169 T02330078
VFR 17:53:00 19-10-17
Automated station
Altimeter:30.07 hg
Temp:23.3°c 73°f
Dew point:7.2°c 45°f
Wind:14 knots, 16.1 mph, 7 m/s, from 230°
Visibility:10.0 statute miles
(CLR) Clear
KBVY 191753Z 23014G23KT 10SM CLR 23/07 A3007 RMK AO2 SLP178 T02330072 10233 20089 58033
TAF
No TAF for KBVY
Forecast at KBVY
No Forecast Reports for KBVY